createdAt,value
2022-10-19T00:02:37.225Z,101160.03
2022-10-19T00:05:41.749Z,101155.69
2022-10-19T00:08:45.429Z,101152.00
2022-10-19T00:11:50.439Z,101139.31
2022-10-19T00:14:53.779Z,101138.25
2022-10-19T00:17:57.001Z,101135.37
2022-10-19T00:21:06.306Z,101116.50
2022-10-19T00:24:09.972Z,101130.25
2022-10-19T00:27:13.269Z,101125.22
2022-10-19T00:30:17.717Z,101124.78
2022-10-19T00:33:22.633Z,101117.19
2022-10-19T00:36:29.515Z,101119.78
2022-10-19T00:39:32.698Z,101117.94
2022-10-19T00:42:36.015Z,101099.44
2022-10-19T00:45:39.236Z,101096.88
2022-10-19T00:48:42.610Z,101098.66
2022-10-19T00:51:51.305Z,101096.66
2022-10-19T00:54:56.769Z,101090.28
2022-10-19T00:58:00.804Z,101089.31
2022-10-19T01:01:06.117Z,101089.06
2022-10-19T01:04:09.555Z,101091.16
2022-10-19T01:07:13.709Z,101083.50
2022-10-19T01:10:17.791Z,101074.06
2022-10-19T01:13:49.973Z,101068.97
2022-10-19T01:17:26.932Z,101060.34
2022-10-19T01:20:57.731Z,101066.94
2022-10-19T01:24:38.454Z,101054.97
2022-10-19T01:28:19.535Z,101051.03
2022-10-19T01:32:02.607Z,101059.19
2022-10-19T01:35:11.689Z,101057.19
2022-10-19T01:38:29.790Z,101052.44
2022-10-19T01:41:36.939Z,101061.16
2022-10-19T01:45:00.199Z,101053.44
2022-10-19T01:48:12.465Z,101054.03
2022-10-19T01:51:25.965Z,101047.28
2022-10-19T01:54:36.438Z,101037.88
2022-10-19T01:57:47.481Z,101049.00
2022-10-19T02:00:53.926Z,101050.09
2022-10-19T02:03:58.433Z,101046.81
2022-10-19T02:07:04.563Z,101046.94
2022-10-19T02:10:08.695Z,101055.88
2022-10-19T02:13:15.670Z,101047.91
2022-10-19T02:16:25.751Z,101052.44
2022-10-19T02:19:29.108Z,101059.66
2022-10-19T02:22:32.584Z,101047.37
2022-10-19T02:25:36.911Z,101046.59
2022-10-19T02:28:40.130Z,101039.50
2022-10-19T02:31:45.492Z,101031.59
2022-10-19T02:34:48.675Z,101037.03
2022-10-19T02:37:53.052Z,101028.22
2022-10-19T02:41:11.713Z,101034.50
2022-10-19T02:44:24.442Z,101031.59
2022-10-19T02:47:45.544Z,101028.25
2022-10-19T02:50:49.734Z,101040.87
2022-10-19T02:53:53.261Z,101040.19
2022-10-19T02:56:57.843Z,101040.72
2022-10-19T03:00:01.209Z,101047.06
2022-10-19T03:03:05.184Z,101042.53
2022-10-19T03:06:08.352Z,101041.75
2022-10-19T03:09:11.838Z,101036.81
2022-10-19T03:12:15.850Z,101036.41
2022-10-19T03:15:19.835Z,101043.91
2022-10-19T03:18:22.836Z,101037.88
2022-10-19T03:21:26.176Z,101050.84
2022-10-19T03:24:30.828Z,101051.69
2022-10-19T03:27:34.415Z,101044.22
2022-10-19T03:30:42.611Z,101034.75
2022-10-19T03:33:46.151Z,101049.84
2022-10-19T03:36:49.338Z,101053.69
2022-10-19T03:39:52.890Z,101050.19
2022-10-19T03:42:56.203Z,101044.94
2022-10-19T03:45:59.447Z,101046.78
2022-10-19T03:49:03.844Z,101048.72
2022-10-19T03:52:10.162Z,101044.22
2022-10-19T03:55:13.716Z,101041.06
2022-10-19T03:58:17.051Z,101025.69
2022-10-19T04:01:27.220Z,101050.69
2022-10-19T04:04:30.628Z,101042.19
2022-10-19T04:07:33.840Z,101030.53
2022-10-19T04:10:39.205Z,101057.22
2022-10-19T04:13:43.062Z,101053.03
2022-10-19T04:16:46.347Z,101053.22
2022-10-19T04:19:49.832Z,101048.00
2022-10-19T04:22:53.691Z,101044.31
2022-10-19T04:26:05.023Z,101049.75
2022-10-19T04:29:09.212Z,101044.16
2022-10-19T04:32:12.549Z,101040.75
2022-10-19T04:35:17.804Z,101039.31
2022-10-19T04:38:29.910Z,101046.47
2022-10-19T04:41:34.993Z,101041.28
2022-10-19T04:44:39.736Z,101046.66
2022-10-19T04:47:42.974Z,101034.00
2022-10-19T04:50:47.683Z,101045.62
2022-10-19T04:53:59.613Z,101054.72
2022-10-19T04:57:03.023Z,101054.03
2022-10-19T05:00:07.977Z,101063.13
2022-10-19T05:03:11.150Z,101059.41
2022-10-19T05:06:15.948Z,101056.69
2022-10-19T05:09:18.995Z,101053.41
2022-10-19T05:12:23.988Z,101060.63
2022-10-19T05:15:27.089Z,101054.37
2022-10-19T05:18:30.681Z,101059.97
2022-10-19T05:21:33.895Z,101057.34
2022-10-19T05:24:37.299Z,101059.09
2022-10-19T05:27:40.540Z,101072.47
2022-10-19T05:30:49.082Z,101071.56
2022-10-19T05:33:52.323Z,101088.31
2022-10-19T05:36:56.719Z,101089.91
2022-10-19T05:39:59.862Z,101096.75
2022-10-19T05:43:03.094Z,101101.00
2022-10-19T05:46:08.603Z,101096.09
2022-10-19T05:49:13.102Z,101089.66
2022-10-19T05:52:18.070Z,101096.38
2022-10-19T05:55:22.301Z,101101.63
2022-10-19T05:58:25.897Z,101093.16
2022-10-19T06:01:30.560Z,101107.72
2022-10-19T06:04:35.070Z,101105.50
2022-10-19T06:07:38.100Z,101097.25
2022-10-19T06:10:44.085Z,101099.91
2022-10-19T06:13:50.606Z,101087.78
2022-10-19T06:16:53.863Z,101101.69
2022-10-19T06:19:56.926Z,101095.31
2022-10-19T06:23:00.625Z,101104.81
2022-10-19T06:26:06.909Z,101104.34
2022-10-19T06:29:10.542Z,101115.81
2022-10-19T06:32:13.734Z,101118.72
2022-10-19T06:35:17.487Z,101121.34
2022-10-19T06:38:20.570Z,101119.09
2022-10-19T06:41:24.209Z,101119.94
2022-10-19T06:44:27.551Z,101118.72
2022-10-19T06:47:34.121Z,101114.38
2022-10-19T06:50:37.867Z,101124.38
2022-10-19T06:53:41.306Z,101121.63
2022-10-19T06:56:44.536Z,101127.09
2022-10-19T06:59:51.449Z,101124.53
2022-10-19T07:02:58.327Z,101127.41
2022-10-19T07:06:04.209Z,101139.56
2022-10-19T07:09:09.819Z,101140.88
2022-10-19T07:12:13.126Z,101144.41
2022-10-19T07:15:17.394Z,101149.00
2022-10-19T07:18:20.583Z,101153.22
2022-10-19T07:21:24.598Z,101146.38
2022-10-19T07:24:27.933Z,101155.66
2022-10-19T07:27:36.709Z,101162.84
2022-10-19T07:30:42.454Z,101163.41
2022-10-19T07:33:45.527Z,101164.38
2022-10-19T07:36:49.380Z,101166.38
2022-10-19T07:39:52.811Z,101168.00
2022-10-19T07:42:56.269Z,101171.16
2022-10-19T07:46:05.930Z,101162.53
2022-10-19T07:49:13.966Z,101160.44
2022-10-19T07:52:17.249Z,101161.84
2022-10-19T07:55:20.535Z,101161.31
2022-10-19T07:58:23.609Z,101154.91
2022-10-19T08:01:32.712Z,101151.50
2022-10-19T08:05:01.240Z,101151.47
2022-10-19T08:08:00.025Z,101154.75
2022-10-19T08:11:08.660Z,101161.09
2022-10-19T08:14:11.687Z,101161.63
2022-10-19T08:17:17.785Z,101164.41
2022-10-19T08:20:21.360Z,101152.25
2022-10-19T08:23:24.964Z,101168.19
2022-10-19T08:26:30.225Z,101157.88
2022-10-19T08:29:33.803Z,101153.84
2022-10-19T08:32:38.104Z,101157.28
2022-10-19T08:35:41.696Z,101152.84
2022-10-19T08:38:49.125Z,101151.56
2022-10-19T08:41:58.769Z,101155.78
2022-10-19T08:45:25.975Z,101147.94
2022-10-19T08:48:33.530Z,101157.53
2022-10-19T08:51:40.384Z,101150.91
2022-10-19T08:54:49.840Z,101150.66
2022-10-19T08:58:24.860Z,101143.53
2022-10-19T09:01:40.912Z,101144.72
2022-10-19T09:04:50.532Z,101143.28
2022-10-19T09:07:54.916Z,101132.50
2022-10-19T09:10:59.149Z,101133.25
2022-10-19T09:14:16.393Z,101136.66
2022-10-19T09:17:21.649Z,101134.50
2022-10-19T09:20:48.159Z,101130.72
2022-10-19T09:23:55.713Z,101134.72
2022-10-19T09:27:01.004Z,101135.94
2022-10-19T09:30:16.056Z,101133.62
2022-10-19T09:33:27.273Z,101131.59
2022-10-19T09:36:50.011Z,101138.59
2022-10-19T09:39:55.782Z,101135.78
2022-10-19T09:42:59.710Z,101134.47
2022-10-19T09:46:19.774Z,101135.75
2022-10-19T09:50:05.628Z,101130.81
2022-10-19T09:53:19.515Z,101135.66
2022-10-19T09:56:24.385Z,101120.28
2022-10-19T09:59:33.234Z,101121.03
2022-10-19T10:02:36.762Z,101116.81
2022-10-19T10:05:41.313Z,101106.69
2022-10-19T10:08:51.183Z,101102.59
2022-10-19T10:11:59.419Z,101100.59
2022-10-19T10:15:06.261Z,101112.78
2022-10-19T10:18:15.824Z,101099.34
2022-10-19T10:21:47.229Z,101104.47
2022-10-19T10:24:53.811Z,101101.91
2022-10-19T10:28:02.912Z,101101.31
2022-10-19T10:31:09.265Z,101100.50
2022-10-19T10:34:30.268Z,101098.47
2022-10-19T10:37:43.744Z,101086.00
2022-10-19T10:41:12.188Z,101079.94
2022-10-19T10:44:23.389Z,101074.59
2022-10-19T10:47:27.876Z,101071.41
2022-10-19T10:50:36.200Z,101069.66
2022-10-19T10:53:43.526Z,101073.72
2022-10-19T10:57:13.318Z,101067.94
2022-10-19T11:00:20.236Z,101066.91
2022-10-19T11:03:29.003Z,101067.94
2022-10-19T11:06:42.271Z,101049.94
2022-10-19T11:09:58.738Z,101054.91
2022-10-19T11:13:10.419Z,101052.75
2022-10-19T11:16:19.784Z,101050.25
2022-10-19T11:19:35.405Z,101045.34
2022-10-19T11:22:49.305Z,101031.44
2022-10-19T11:26:03.111Z,101031.81
2022-10-19T11:29:46.021Z,101030.81
2022-10-19T11:32:58.858Z,101031.47
2022-10-19T11:36:17.938Z,101031.91
2022-10-19T11:39:39.512Z,101025.97
2022-10-19T11:42:54.931Z,101018.75
2022-10-19T11:46:20.274Z,101012.38
2022-10-19T11:49:49.311Z,101007.44
2022-10-19T11:52:59.362Z,101021.19
2022-10-19T11:56:05.811Z,101025.19
2022-10-19T11:59:53.613Z,101015.97
2022-10-19T12:03:09.059Z,100999.94
2022-10-19T12:06:37.495Z,101015.22
2022-10-19T12:09:48.311Z,100999.31
2022-10-19T12:12:59.088Z,100995.22
2022-10-19T12:16:04.450Z,100987.88
2022-10-19T12:19:16.469Z,100987.56
2022-10-19T12:22:28.394Z,100975.34
2022-10-19T12:25:34.642Z,100982.56
2022-10-19T12:28:40.636Z,100981.44
2022-10-19T12:31:46.494Z,100982.87
2022-10-19T12:35:21.627Z,100977.78
2022-10-19T12:38:30.853Z,100981.28
2022-10-19T12:41:45.130Z,100978.53
2022-10-19T12:45:09.730Z,100966.81
2022-10-19T12:48:21.767Z,100976.81
2022-10-19T12:51:25.542Z,100966.34
2022-10-19T12:54:32.081Z,100970.59
2022-10-19T12:57:40.368Z,100963.59
2022-10-19T13:01:00.774Z,100973.28
2022-10-19T13:04:11.632Z,100981.66
2022-10-19T13:07:18.512Z,100970.75
2022-10-19T13:10:27.681Z,100953.34
2022-10-19T13:13:59.192Z,100963.72
2022-10-19T13:17:03.172Z,100960.53
2022-10-19T13:20:15.424Z,100968.06
2022-10-19T13:23:38.734Z,100967.44
2022-10-19T13:26:44.925Z,100963.69
2022-10-19T13:29:50.264Z,100965.44
2022-10-19T13:32:53.005Z,100962.22
2022-10-19T13:35:59.369Z,100964.62
2022-10-19T13:39:07.896Z,100971.69
2022-10-19T13:42:28.493Z,100970.81
2022-10-19T13:45:31.713Z,100967.72
2022-10-19T13:49:06.919Z,100977.72
2022-10-19T13:52:34.166Z,100961.84
2022-10-19T13:55:48.582Z,100970.88
2022-10-19T13:59:10.689Z,100954.34
2022-10-19T14:02:42.357Z,100971.63
2022-10-19T14:06:03.469Z,100974.16
2022-10-19T14:09:27.365Z,100968.50
2022-10-19T14:12:34.131Z,100971.97
2022-10-19T14:15:37.179Z,100972.31
2022-10-19T14:18:42.465Z,100976.72
2022-10-19T14:21:45.866Z,100978.41
2022-10-19T14:24:49.324Z,100969.00
2022-10-19T14:28:02.192Z,100969.00
2022-10-19T14:31:21.921Z,100967.88
2022-10-19T14:34:25.004Z,100963.75
2022-10-19T14:37:28.414Z,100967.50
2022-10-19T14:40:41.864Z,100971.47
2022-10-19T14:43:47.815Z,100983.25
2022-10-19T14:46:50.875Z,100979.13
2022-10-19T14:49:54.223Z,100974.03
2022-10-19T14:53:10.413Z,100984.53
2022-10-19T14:56:25.165Z,100995.41
2022-10-19T14:59:50.929Z,100985.97
2022-10-19T15:03:20.747Z,100986.09
2022-10-19T15:06:33.047Z,100977.88
2022-10-19T15:09:48.275Z,100977.00
2022-10-19T15:12:57.518Z,100979.53
2022-10-19T15:16:01.115Z,100979.75
2022-10-19T15:19:07.430Z,100985.50
2022-10-19T15:22:37.819Z,100997.00
2022-10-19T15:25:42.879Z,100986.37
2022-10-19T15:28:47.656Z,100983.41
2022-10-19T15:31:56.422Z,100993.75
2022-10-19T15:34:59.675Z,100981.56
2022-10-19T15:38:35.766Z,100977.00
2022-10-19T15:41:40.693Z,100973.94
2022-10-19T15:44:44.935Z,100971.19
2022-10-19T15:48:08.174Z,100978.50
2022-10-19T15:51:24.077Z,100980.69
2022-10-19T15:54:28.214Z,100993.66
2022-10-19T15:57:38.108Z,101003.75
2022-10-19T16:00:43.331Z,101007.56
2022-10-19T16:03:50.322Z,101006.72
2022-10-19T16:06:54.894Z,101015.09
2022-10-19T16:09:59.973Z,101014.03
2022-10-19T16:13:03.442Z,101017.81
2022-10-19T16:16:11.796Z,101017.34
2022-10-19T16:19:17.523Z,101016.19
2022-10-19T16:22:22.797Z,101029.34
2022-10-19T16:25:26.396Z,101029.63
2022-10-19T16:28:30.853Z,101036.09
2022-10-19T16:31:34.756Z,101043.97
2022-10-19T16:34:39.046Z,101042.00
2022-10-19T16:37:42.997Z,101043.22
2022-10-19T16:40:47.806Z,101051.56
2022-10-19T16:43:57.561Z,101046.63
2022-10-19T16:47:03.186Z,101057.19
2022-10-19T16:50:11.676Z,101076.22
2022-10-19T16:53:15.778Z,101067.47
2022-10-19T16:56:20.574Z,101074.84
2022-10-19T16:59:25.609Z,101078.72
2022-10-19T17:02:30.681Z,101094.16
2022-10-19T17:05:38.552Z,101085.34
2022-10-19T17:09:30.230Z,101085.13
2022-10-19T17:12:12.406Z,101087.50
2022-10-19T17:15:41.520Z,101100.06
2022-10-19T17:18:43.326Z,101094.03
2022-10-19T17:21:49.338Z,101089.16
2022-10-19T17:24:55.937Z,101087.91
2022-10-19T17:28:01.228Z,101111.41
2022-10-19T17:31:11.459Z,101113.09
2022-10-19T17:34:16.179Z,101125.06
2022-10-19T17:37:21.285Z,101131.63
2022-10-19T17:40:33.623Z,101139.50
2022-10-19T17:43:40.087Z,101153.03
2022-10-19T17:46:45.029Z,101155.78
2022-10-19T17:49:51.023Z,101165.47
2022-10-19T17:52:56.751Z,101147.66
2022-10-19T17:56:03.860Z,101136.56
2022-10-19T17:59:09.615Z,101138.78
2022-10-19T18:02:13.701Z,101150.91
2022-10-19T18:05:18.745Z,101138.41
2022-10-19T18:08:25.979Z,101125.69
2022-10-19T18:11:40.359Z,101148.97
2022-10-19T18:14:45.662Z,101161.84
2022-10-19T18:17:50.105Z,101168.44
2022-10-19T18:20:59.711Z,101160.72
2022-10-19T18:24:09.148Z,101173.63
2022-10-19T18:27:16.792Z,101186.03
2022-10-19T18:30:21.874Z,101204.19
2022-10-19T18:33:30.232Z,101142.50
2022-10-19T18:36:38.896Z,101151.91
2022-10-19T18:39:43.457Z,101188.88
2022-10-19T18:42:48.648Z,101145.25
2022-10-19T18:45:56.376Z,101175.13
2022-10-19T18:49:02.081Z,101201.06
2022-10-19T18:52:10.325Z,101178.12
2022-10-19T18:55:16.566Z,101210.56
2022-10-19T18:58:23.832Z,101222.94
2022-10-19T19:01:29.956Z,101213.78
2022-10-19T19:04:37.199Z,101206.87
2022-10-19T19:07:42.128Z,101225.12
2022-10-19T19:10:47.796Z,101203.56
2022-10-19T19:14:00.426Z,101217.09
2022-10-19T19:17:05.488Z,101204.00
2022-10-19T19:20:10.858Z,101212.00
2022-10-19T19:23:22.051Z,101209.41
2022-10-19T19:26:29.308Z,101192.31
2022-10-19T19:29:34.284Z,101205.63
2022-10-19T19:32:41.907Z,101215.69
2022-10-19T19:35:48.346Z,101224.03
2022-10-19T19:38:55.630Z,101233.22
2022-10-19T19:42:00.322Z,101234.47
2022-10-19T19:45:10.523Z,101230.84
2022-10-19T19:48:14.951Z,101234.59
2022-10-19T19:51:21.574Z,101181.31
2022-10-19T19:54:27.294Z,101242.47
2022-10-19T19:57:31.893Z,101213.00
2022-10-19T20:00:48.344Z,101218.25
2022-10-19T20:04:11.809Z,101229.44
2022-10-19T20:07:17.160Z,101243.13
2022-10-19T20:10:22.889Z,101263.16
2022-10-19T20:13:51.699Z,101256.81
2022-10-19T20:16:57.809Z,101268.91
2022-10-19T20:20:03.623Z,101278.56
2022-10-19T20:23:08.645Z,101275.94
2022-10-19T20:26:18.969Z,101280.03
2022-10-19T20:29:37.710Z,101285.53
2022-10-19T20:32:45.798Z,101287.13
2022-10-19T20:35:53.050Z,101280.03
2022-10-19T20:38:59.343Z,101278.41
2022-10-19T20:42:04.063Z,101285.69
2022-10-19T20:45:08.473Z,101289.38
2022-10-19T20:48:13.110Z,101286.69
2022-10-19T20:51:30.930Z,101301.69
2022-10-19T20:54:38.481Z,101291.66
2022-10-19T20:57:42.141Z,101303.81
2022-10-19T21:00:47.367Z,101308.69
2022-10-19T21:03:54.985Z,101291.81
2022-10-19T21:06:58.786Z,101319.09
2022-10-19T21:10:03.148Z,101300.09
2022-10-19T21:13:07.983Z,101305.56
2022-10-19T21:16:20.490Z,101230.47
2022-10-19T21:19:25.846Z,101313.78
2022-10-19T21:22:28.986Z,101327.81
2022-10-19T21:25:32.475Z,101322.25
2022-10-19T21:28:36.257Z,101320.12
2022-10-19T21:31:44.127Z,101323.25
2022-10-19T21:34:49.459Z,101330.59
2022-10-19T21:37:53.034Z,101329.91
2022-10-19T21:40:59.652Z,101343.81
2022-10-19T21:44:04.165Z,101329.97
2022-10-19T21:47:08.067Z,101336.69
2022-10-19T21:50:11.499Z,101341.56
2022-10-19T21:53:19.531Z,101335.44
2022-10-19T21:56:22.916Z,101330.94
2022-10-19T21:59:26.416Z,101333.38
2022-10-19T22:02:29.722Z,101332.37
2022-10-19T22:05:33.605Z,101335.09
2022-10-19T22:08:36.986Z,101341.06
2022-10-19T22:11:40.975Z,101339.53
2022-10-19T22:14:45.362Z,101344.91
2022-10-19T22:17:48.699Z,101341.59
2022-10-19T22:20:53.517Z,101344.59
2022-10-19T22:24:02.390Z,101345.53
2022-10-19T22:27:05.583Z,101345.66
2022-10-19T22:30:09.543Z,101336.84
2022-10-19T22:33:12.708Z,101349.66
2022-10-19T22:36:16.665Z,101344.69
2022-10-19T22:39:21.593Z,101345.84
2022-10-19T22:42:25.071Z,101358.69
2022-10-19T22:45:29.666Z,101338.81
2022-10-19T22:48:35.419Z,101360.47
2022-10-19T22:51:38.866Z,101367.25
2022-10-19T22:54:43.733Z,101345.56
2022-10-19T22:57:47.946Z,101360.34
2022-10-19T23:01:06.006Z,101366.81
2022-10-19T23:04:09.233Z,101362.72
2022-10-19T23:07:12.888Z,101363.09
2022-10-19T23:10:16.366Z,101361.66
2022-10-19T23:13:20.971Z,101363.75
2022-10-19T23:16:24.143Z,101356.13
2022-10-19T23:19:28.224Z,101364.12
2022-10-19T23:22:31.804Z,101366.94
2022-10-19T23:25:35.726Z,101365.09
2022-10-19T23:28:40.993Z,101354.59
2022-10-19T23:31:44.420Z,101364.72
2022-10-19T23:34:48.518Z,101361.34
2022-10-19T23:37:52.005Z,101370.28
2022-10-19T23:40:55.437Z,101375.87
2022-10-19T23:43:58.955Z,101375.97
2022-10-19T23:47:02.038Z,101377.84
2022-10-19T23:50:06.254Z,101372.72
2022-10-19T23:53:09.601Z,101378.06
2022-10-19T23:56:14.759Z,101386.19
2022-10-19T23:59:18.052Z,101391.66
